Time;durP1;ratioP1;P1;durP2;ratioP2;P2;SDS_P1;SDS_P2;PMS_P1;PMS_P2;Temp;Humidity;BMP_temperature;BMP_pressure;BME280_temperature;BME280_humidity;BME280_pressure;Samples;Min_cycle;Max_cycle;Signal;HPM_P1;HPM_P2
2023/03/29 00:00:00;;;;;;;1.7;1.7;;;;;;;6.4;100.0;101460;;;;
2023/03/29 00:01:01;;;;;;;1.7;1.7;;;;;;;6.4;100.0;101460;;;;
2023/03/29 00:02:00;;;;;;;1.7;1.7;;;;;;;6.2;100.0;101460;;;;
2023/03/29 00:03:01;;;;;;;1.7;1.7;;;;;;;6.2;100.0;101460;;;;
2023/03/29 00:04:02;;;;;;;1.7;1.7;;;;;;;6.2;100.0;101460;;;;
2023/03/29 00:05:00;;;;;;;1.7;1.7;;;;;;;6.2;100.0;101460;;;;
2023/03/29 00:06:02;;;;;;;1.7;1.7;;;;;;;6.4;100.0;101460;;;;
2023/03/29 00:07:03;;;;;;;1.7;1.7;;;;;;;6.4;100.0;101460;;;;
2023/03/29 00:08:02;;;;;;;1.7;1.7;;;;;;;6.4;100.0;101460;;;;
2023/03/29 00:09:03;;;;;;;1.7;1.7;;;;;;;6.4;100.0;101460;;;;
2023/03/29 00:10:01;;;;;;;1.8;1.8;;;;;;;6.4;100.0;101450;;;;
2023/03/29 00:11:00;;;;;;;1.8;1.8;;;;;;;6.4;100.0;101450;;;;
2023/03/29 00:12:00;;;;;;;1.8;1.8;;;;;;;6.4;100.0;101450;;;;
2023/03/29 00:13:00;;;;;;;1.8;1.8;;;;;;;6.4;100.0;101450;;;;
2023/03/29 00:14:00;;;;;;;1.8;1.8;;;;;;;6.3;100.0;101450;;;;
2023/03/29 00:15:00;;;;;;;1.8;1.8;;;;;;;6.3;100.0;101450;;;;
2023/03/29 00:16:00;;;;;;;1.8;1.8;;;;;;;6.4;100.0;101440;;;;
2023/03/29 00:17:00;;;;;;;1.8;1.8;;;;;;;6.4;100.0;101440;;;;
2023/03/29 00:18:00;;;;;;;1.8;1.8;;;;;;;6.3;100.0;101440;;;;
2023/03/29 00:19:00;;;;;;;1.8;1.8;;;;;;;6.3;100.0;101440;;;;
2023/03/29 00:20:00;;;;;;;1.8;1.8;;;;;;;6.2;100.0;101450;;;;
2023/03/29 00:21:01;;;;;;;1.8;1.8;;;;;;;6.2;100.0;101450;;;;
2023/03/29 00:22:00;;;;;;;1.8;1.8;;;;;;;6.1;100.0;101440;;;;
2023/03/29 00:23:00;;;;;;;1.8;1.8;;;;;;;6.1;100.0;101440;;;;
2023/03/29 00:24:00;;;;;;;1.8;1.8;;;;;;;6.2;100.0;101430;;;;
2023/03/29 00:25:00;;;;;;;1.8;1.8;;;;;;;6.2;100.0;101430;;;;
2023/03/29 00:26:00;;;;;;;1.8;1.8;;;;;;;6.3;100.0;101430;;;;
2023/03/29 00:27:00;;;;;;;1.8;1.8;;;;;;;6.3;100.0;101430;;;;
2023/03/29 00:28:00;;;;;;;1.8;1.8;;;;;;;6.3;100.0;101440;;;;
2023/03/29 00:29:00;;;;;;;1.8;1.8;;;;;;;6.3;100.0;101440;;;;
2023/03/29 00:30:02;;;;;;;1.5;1.5;;;;;;;6.3;100.0;101430;;;;
2023/03/29 00:31:09;;;;;;;1.5;1.5;;;;;;;6.3;100.0;101430;;;;
2023/03/29 00:32:00;;;;;;;1.5;1.5;;;;;;;6.2;100.0;101430;;;;
2023/03/29 00:33:00;;;;;;;1.5;1.5;;;;;;;6.2;100.0;101430;;;;
2023/03/29 00:34:00;;;;;;;1.5;1.5;;;;;;;6.3;100.0;101430;;;;
2023/03/29 00:35:00;;;;;;;1.5;1.5;;;;;;;6.3;100.0;101430;;;;
2023/03/29 00:36:00;;;;;;;1.5;1.5;;;;;;;6.3;100.0;101430;;;;
2023/03/29 00:37:00;;;;;;;1.5;1.5;;;;;;;6.3;100.0;101430;;;;
2023/03/29 00:38:00;;;;;;;1.5;1.5;;;;;;;6.4;100.0;101430;;;;
2023/03/29 00:39:00;;;;;;;1.5;1.5;;;;;;;6.4;100.0;101430;;;;
2023/03/29 00:40:00;;;;;;;1.5;1.5;;;;;;;6.4;100.0;101430;;;;
2023/03/29 00:41:00;;;;;;;1.5;1.5;;;;;;;6.4;100.0;101430;;;;
2023/03/29 00:42:00;;;;;;;1.5;1.5;;;;;;;6.4;100.0;101430;;;;
2023/03/29 00:43:00;;;;;;;1.5;1.5;;;;;;;6.4;100.0;101430;;;;
2023/03/29 00:44:01;;;;;;;1.5;1.5;;;;;;;6.4;100.0;101420;;;;
2023/03/29 00:45:03;;;;;;;1.5;1.5;;;;;;;6.4;100.0;101420;;;;
2023/03/29 00:46:00;;;;;;;1.5;1.5;;;;;;;6.4;100.0;101430;;;;
2023/03/29 00:47:00;;;;;;;1.5;1.5;;;;;;;6.4;100.0;101430;;;;
2023/03/29 00:48:01;;;;;;;1.5;1.5;;;;;;;6.5;100.0;101420;;;;
2023/03/29 00:49:04;;;;;;;1.6;1.6;;;;;;;6.5;100.0;101420;;;;
2023/03/29 00:50:04;;;;;;;1.6;1.6;;;;;;;6.4;100.0;101420;;;;
2023/03/29 00:51:05;;;;;;;1.6;1.6;;;;;;;6.4;100.0;101420;;;;
2023/03/29 00:52:00;;;;;;;1.6;1.6;;;;;;;6.3;100.0;101420;;;;
2023/03/29 00:53:03;;;;;;;1.6;1.6;;;;;;;6.3;100.0;101420;;;;
2023/03/29 00:54:02;;;;;;;1.6;1.6;;;;;;;6.4;100.0;101420;;;;
2023/03/29 00:55:02;;;;;;;1.6;1.6;;;;;;;6.4;100.0;101420;;;;
2023/03/29 00:56:11;;;;;;;1.6;1.6;;;;;;;6.4;100.0;101410;;;;
2023/03/29 00:57:02;;;;;;;1.6;1.6;;;;;;;6.4;100.0;101410;;;;
2023/03/29 00:58:01;;;;;;;1.6;1.6;;;;;;;6.4;100.0;101410;;;;
2023/03/29 00:59:05;;;;;;;1.6;1.6;;;;;;;6.4;100.0;101410;;;;
2023/03/29 01:00:03;;;;;;;1.6;1.6;;;;;;;6.6;100.0;101400;;;;
2023/03/29 01:01:07;;;;;;;1.6;1.6;;;;;;;6.6;100.0;101400;;;;
2023/03/29 01:02:02;;;;;;;1.6;1.6;;;;;;;6.5;100.0;101390;;;;
2023/03/29 01:03:03;;;;;;;1.6;1.6;;;;;;;6.5;100.0;101390;;;;
2023/03/29 01:04:03;;;;;;;1.6;1.6;;;;;;;6.5;100.0;101390;;;;
2023/03/29 01:05:04;;;;;;;1.6;1.6;;;;;;;6.5;100.0;101390;;;;
2023/03/29 01:06:03;;;;;;;1.6;1.6;;;;;;;6.5;100.0;101390;;;;
2023/03/29 01:07:08;;;;;;;1.6;1.6;;;;;;;6.5;100.0;101390;;;;
2023/03/29 01:08:02;;;;;;;1.6;1.6;;;;;;;6.6;100.0;101390;;;;
2023/03/29 01:09:02;;;;;;;1.5;1.5;;;;;;;6.6;100.0;101390;;;;
2023/03/29 01:10:05;;;;;;;1.5;1.5;;;;;;;6.5;100.0;101390;;;;
2023/03/29 01:11:05;;;;;;;1.5;1.5;;;;;;;6.5;100.0;101390;;;;
2023/03/29 01:12:01;;;;;;;1.5;1.5;;;;;;;6.5;100.0;101390;;;;
2023/03/29 01:13:03;;;;;;;1.5;1.5;;;;;;;6.5;100.0;101390;;;;
2023/03/29 01:14:02;;;;;;;1.5;1.5;;;;;;;6.6;100.0;101380;;;;
2023/03/29 01:15:03;;;;;;;1.5;1.5;;;;;;;6.6;100.0;101380;;;;
2023/03/29 01:16:01;;;;;;;1.5;1.5;;;;;;;6.5;100.0;101380;;;;
2023/03/29 01:17:00;;;;;;;1.5;1.5;;;;;;;6.5;100.0;101380;;;;
2023/03/29 01:18:00;;;;;;;1.5;1.5;;;;;;;6.6;100.0;101390;;;;
2023/03/29 01:19:01;;;;;;;1.5;1.5;;;;;;;6.6;100.0;101390;;;;
2023/03/29 01:20:07;;;;;;;1.5;1.5;;;;;;;6.5;100.0;101390;;;;
2023/03/29 01:21:11;;;;;;;1.5;1.5;;;;;;;6.5;100.0;101390;;;;
2023/03/29 01:22:09;;;;;;;1.5;1.5;;;;;;;6.5;100.0;101380;;;;
2023/03/29 01:23:12;;;;;;;1.5;1.5;;;;;;;6.5;100.0;101380;;;;
2023/03/29 01:24:10;;;;;;;1.5;1.5;;;;;;;6.5;100.0;101380;;;;
2023/03/29 01:25:01;;;;;;;1.5;1.5;;;;;;;6.5;100.0;101380;;;;
2023/03/29 01:26:10;;;;;;;1.5;1.5;;;;;;;6.5;100.0;101380;;;;
2023/03/29 01:27:11;;;;;;;1.5;1.5;;;;;;;6.5;100.0;101380;;;;
2023/03/29 01:28:02;;;;;;;1.5;1.5;;;;;;;6.5;100.0;101380;;;;
2023/03/29 01:29:05;;;;;;;1.4;1.4;;;;;;;6.5;100.0;101380;;;;
2023/03/29 01:30:03;;;;;;;1.4;1.4;;;;;;;6.6;100.0;101370;;;;
2023/03/29 01:31:02;;;;;;;1.4;1.4;;;;;;;6.6;100.0;101370;;;;
2023/03/29 01:32:07;;;;;;;1.4;1.4;;;;;;;6.5;100.0;101370;;;;
2023/03/29 01:33:03;;;;;;;1.4;1.4;;;;;;;6.5;100.0;101370;;;;
2023/03/29 01:34:04;;;;;;;1.4;1.4;;;;;;;6.5;100.0;101370;;;;
2023/03/29 01:35:09;;;;;;;1.4;1.4;;;;;;;6.5;100.0;101370;;;;
2023/03/29 01:36:04;;;;;;;1.4;1.4;;;;;;;6.5;100.0;101370;;;;
2023/03/29 01:37:04;;;;;;;1.4;1.4;;;;;;;6.5;100.0;101370;;;;
2023/03/29 01:38:06;;;;;;;1.4;1.4;;;;;;;6.5;100.0;101370;;;;
2023/03/29 01:39:03;;;;;;;1.4;1.4;;;;;;;6.5;100.0;101370;;;;
2023/03/29 01:40:00;;;;;;;1.4;1.4;;;;;;;6.6;100.0;101360;;;;
2023/03/29 01:41:02;;;;;;;1.4;1.4;;;;;;;6.6;100.0;101360;;;;
2023/03/29 01:42:08;;;;;;;1.4;1.4;;;;;;;6.5;100.0;101370;;;;
2023/03/29 01:43:03;;;;;;;1.4;1.4;;;;;;;6.5;100.0;101370;;;;
2023/03/29 01:44:04;;;;;;;1.4;1.4;;;;;;;6.5;100.0;101360;;;;
2023/03/29 01:45:06;;;;;;;1.4;1.4;;;;;;;6.5;100.0;101360;;;;
2023/03/29 01:46:00;;;;;;;1.4;1.4;;;;;;;6.6;100.0;101360;;;;
2023/03/29 01:47:10;;;;;;;1.4;1.4;;;;;;;6.6;100.0;101360;;;;
2023/03/29 01:48:07;;;;;;;1.4;1.4;;;;;;;6.6;100.0;101350;;;;
2023/03/29 01:49:04;;;;;;;1.5;1.5;;;;;;;6.6;100.0;101350;;;;
2023/03/29 01:50:05;;;;;;;1.5;1.5;;;;;;;6.6;100.0;101350;;;;
2023/03/29 01:51:10;;;;;;;1.5;1.5;;;;;;;6.6;100.0;101350;;;;
2023/03/29 01:52:04;;;;;;;1.5;1.5;;;;;;;6.7;100.0;101350;;;;
2023/03/29 01:53:04;;;;;;;1.5;1.5;;;;;;;6.7;100.0;101350;;;;
2023/03/29 01:54:03;;;;;;;1.5;1.5;;;;;;;6.6;100.0;101350;;;;
2023/03/29 01:55:04;;;;;;;1.5;1.5;;;;;;;6.6;100.0;101350;;;;
2023/03/29 01:56:04;;;;;;;1.5;1.5;;;;;;;6.7;100.0;101340;;;;
2023/03/29 01:57:03;;;;;;;1.5;1.5;;;;;;;6.7;100.0;101340;;;;
2023/03/29 01:58:02;;;;;;;1.5;1.5;;;;;;;6.7;100.0;101340;;;;
2023/03/29 01:59:02;;;;;;;1.5;1.5;;;;;;;6.7;100.0;101340;;;;
2023/03/29 02:00:06;;;;;;;1.5;1.5;;;;;;;6.7;100.0;101340;;;;
2023/03/29 02:01:04;;;;;;;1.5;1.5;;;;;;;6.7;100.0;101340;;;;
2023/03/29 02:02:03;;;;;;;1.5;1.5;;;;;;;6.6;100.0;101340;;;;
2023/03/29 02:03:03;;;;;;;1.5;1.5;;;;;;;6.6;100.0;101340;;;;
2023/03/29 02:04:02;;;;;;;1.5;1.5;;;;;;;6.7;100.0;101340;;;;
2023/03/29 02:05:00;;;;;;;1.5;1.5;;;;;;;6.7;100.0;101340;;;;
2023/03/29 02:06:02;;;;;;;1.5;1.5;;;;;;;6.7;100.0;101330;;;;
2023/03/29 02:07:02;;;;;;;1.5;1.5;;;;;;;6.7;100.0;101330;;;;
2023/03/29 02:08:02;;;;;;;1.5;1.5;;;;;;;6.7;100.0;101340;;;;
2023/03/29 02:09:00;;;;;;;1.7;1.7;;;;;;;6.7;100.0;101340;;;;
2023/03/29 02:10:00;;;;;;;1.7;1.7;;;;;;;6.7;100.0;101330;;;;
2023/03/29 02:11:00;;;;;;;1.7;1.7;;;;;;;6.7;100.0;101330;;;;
2023/03/29 02:12:01;;;;;;;1.7;1.7;;;;;;;6.8;100.0;101330;;;;
2023/03/29 02:13:00;;;;;;;1.7;1.7;;;;;;;6.8;100.0;101330;;;;
2023/03/29 02:14:00;;;;;;;1.7;1.7;;;;;;;6.7;100.0;101340;;;;
2023/03/29 02:15:00;;;;;;;1.7;1.7;;;;;;;6.7;100.0;101340;;;;
2023/03/29 02:16:02;;;;;;;1.7;1.7;;;;;;;6.7;100.0;101340;;;;
2023/03/29 02:17:10;;;;;;;1.7;1.7;;;;;;;6.7;100.0;101340;;;;
2023/03/29 02:18:00;;;;;;;1.7;1.7;;;;;;;6.7;100.0;101330;;;;
2023/03/29 02:19:00;;;;;;;1.7;1.7;;;;;;;6.7;100.0;101330;;;;
2023/03/29 02:20:12;;;;;;;1.7;1.7;;;;;;;6.7;100.0;101330;;;;
2023/03/29 02:21:01;;;;;;;1.7;1.7;;;;;;;6.7;100.0;101330;;;;
2023/03/29 02:22:06;;;;;;;1.7;1.7;;;;;;;6.7;100.0;101330;;;;
2023/03/29 02:23:11;;;;;;;1.7;1.7;;;;;;;6.7;100.0;101330;;;;
2023/03/29 02:24:03;;;;;;;1.7;1.7;;;;;;;6.8;100.0;101330;;;;
2023/03/29 02:25:03;;;;;;;1.7;1.7;;;;;;;6.8;100.0;101330;;;;
2023/03/29 02:26:02;;;;;;;1.7;1.7;;;;;;;6.8;100.0;101320;;;;
2023/03/29 02:27:00;;;;;;;1.7;1.7;;;;;;;6.8;100.0;101320;;;;
2023/03/29 02:28:00;;;;;;;1.7;1.7;;;;;;;6.8;100.0;101320;;;;
2023/03/29 02:29:00;;;;;;;1.4;1.4;;;;;;;6.8;100.0;101320;;;;
2023/03/29 02:30:00;;;;;;;1.4;1.4;;;;;;;6.8;100.0;101320;;;;
2023/03/29 02:31:05;;;;;;;1.4;1.4;;;;;;;6.8;100.0;101320;;;;
2023/03/29 02:32:04;;;;;;;1.4;1.4;;;;;;;6.8;100.0;101310;;;;
2023/03/29 02:33:09;;;;;;;1.4;1.4;;;;;;;6.8;100.0;101310;;;;
2023/03/29 02:34:03;;;;;;;1.4;1.4;;;;;;;6.8;100.0;101310;;;;
2023/03/29 02:35:06;;;;;;;1.4;1.4;;;;;;;6.8;100.0;101310;;;;
2023/03/29 02:36:10;;;;;;;1.4;1.4;;;;;;;6.8;100.0;101310;;;;
2023/03/29 02:37:02;;;;;;;1.4;1.4;;;;;;;6.8;100.0;101310;;;;
2023/03/29 02:38:02;;;;;;;1.4;1.4;;;;;;;6.8;100.0;101300;;;;
2023/03/29 02:39:02;;;;;;;1.4;1.4;;;;;;;6.8;100.0;101300;;;;
2023/03/29 02:40:00;;;;;;;1.4;1.4;;;;;;;6.9;100.0;101300;;;;
2023/03/29 02:41:01;;;;;;;1.4;1.4;;;;;;;6.9;100.0;101300;;;;
2023/03/29 02:42:02;;;;;;;1.4;1.4;;;;;;;6.8;100.0;101300;;;;
2023/03/29 02:43:00;;;;;;;1.4;1.4;;;;;;;6.8;100.0;101300;;;;
2023/03/29 02:44:03;;;;;;;1.4;1.4;;;;;;;6.8;100.0;101300;;;;
2023/03/29 02:45:00;;;;;;;1.4;1.4;;;;;;;6.8;100.0;101300;;;;
2023/03/29 02:46:01;;;;;;;1.4;1.4;;;;;;;6.8;100.0;101290;;;;
2023/03/29 02:47:05;;;;;;;1.4;1.4;;;;;;;6.8;100.0;101290;;;;
2023/03/29 02:48:02;;;;;;;1.4;1.4;;;;;;;7.0;100.0;101290;;;;
2023/03/29 02:49:00;;;;;;;1.6;1.6;;;;;;;7.0;100.0;101290;;;;
2023/03/29 02:50:00;;;;;;;1.6;1.6;;;;;;;6.9;100.0;101290;;;;
2023/03/29 02:51:02;;;;;;;1.6;1.6;;;;;;;6.9;100.0;101290;;;;
2023/03/29 02:52:03;;;;;;;1.6;1.6;;;;;;;6.9;100.0;101280;;;;
2023/03/29 02:53:03;;;;;;;1.6;1.6;;;;;;;6.9;100.0;101280;;;;
2023/03/29 02:54:05;;;;;;;1.6;1.6;;;;;;;6.8;100.0;101280;;;;
2023/03/29 02:55:02;;;;;;;1.6;1.6;;;;;;;6.8;100.0;101280;;;;
2023/03/29 02:56:03;;;;;;;1.6;1.6;;;;;;;6.8;100.0;101280;;;;
2023/03/29 02:57:02;;;;;;;1.6;1.6;;;;;;;6.8;100.0;101280;;;;
2023/03/29 02:58:06;;;;;;;1.6;1.6;;;;;;;6.9;100.0;101280;;;;
2023/03/29 02:59:00;;;;;;;1.6;1.6;;;;;;;6.9;100.0;101280;;;;
2023/03/29 03:00:00;;;;;;;1.6;1.6;;;;;;;6.9;100.0;101280;;;;
2023/03/29 03:01:01;;;;;;;1.6;1.6;;;;;;;6.9;100.0;101280;;;;
2023/03/29 03:02:00;;;;;;;1.6;1.6;;;;;;;6.9;100.0;101280;;;;
2023/03/29 03:03:02;;;;;;;1.6;1.6;;;;;;;6.9;100.0;101280;;;;
2023/03/29 03:04:01;;;;;;;1.6;1.6;;;;;;;6.9;100.0;101280;;;;
2023/03/29 03:05:00;;;;;;;1.6;1.6;;;;;;;6.9;100.0;101280;;;;
2023/03/29 03:06:00;;;;;;;1.6;1.6;;;;;;;6.8;100.0;101280;;;;
2023/03/29 03:07:00;;;;;;;1.6;1.6;;;;;;;6.8;100.0;101280;;;;
2023/03/29 03:08:01;;;;;;;1.6;1.6;;;;;;;6.9;100.0;101280;;;;
2023/03/29 03:09:00;;;;;;;1.4;1.4;;;;;;;6.9;100.0;101280;;;;
2023/03/29 03:10:00;;;;;;;1.4;1.4;;;;;;;6.9;100.0;101270;;;;
2023/03/29 03:11:01;;;;;;;1.4;1.4;;;;;;;6.9;100.0;101270;;;;
2023/03/29 03:12:00;;;;;;;1.4;1.4;;;;;;;7.0;100.0;101270;;;;
2023/03/29 03:13:00;;;;;;;1.4;1.4;;;;;;;7.0;100.0;101270;;;;
2023/03/29 03:14:00;;;;;;;1.4;1.4;;;;;;;6.9;100.0;101270;;;;
2023/03/29 03:15:00;;;;;;;1.4;1.4;;;;;;;6.9;100.0;101270;;;;
2023/03/29 03:16:00;;;;;;;1.4;1.4;;;;;;;7.0;100.0;101270;;;;
2023/03/29 03:17:03;;;;;;;1.4;1.4;;;;;;;7.0;100.0;101270;;;;
2023/03/29 03:18:02;;;;;;;1.4;1.4;;;;;;;7.0;100.0;101260;;;;
2023/03/29 03:19:00;;;;;;;1.4;1.4;;;;;;;7.0;100.0;101260;;;;
2023/03/29 03:20:00;;;;;;;1.4;1.4;;;;;;;7.0;100.0;101260;;;;
2023/03/29 03:21:03;;;;;;;1.4;1.4;;;;;;;7.0;100.0;101260;;;;
2023/03/29 03:22:00;;;;;;;1.4;1.4;;;;;;;6.9;100.0;101260;;;;
2023/03/29 03:23:02;;;;;;;1.4;1.4;;;;;;;6.9;100.0;101260;;;;
2023/03/29 03:24:00;;;;;;;1.4;1.4;;;;;;;6.9;100.0;101260;;;;
2023/03/29 03:25:00;;;;;;;1.4;1.4;;;;;;;6.9;100.0;101260;;;;
2023/03/29 03:26:00;;;;;;;1.4;1.4;;;;;;;7.0;100.0;101260;;;;
2023/03/29 03:27:00;;;;;;;1.4;1.4;;;;;;;7.0;100.0;101260;;;;
2023/03/29 03:28:01;;;;;;;1.4;1.4;;;;;;;7.0;100.0;101260;;;;
2023/03/29 03:29:00;;;;;;;1.4;1.4;;;;;;;7.0;100.0;101260;;;;
2023/03/29 03:30:00;;;;;;;1.4;1.4;;;;;;;7.0;100.0;101260;;;;
2023/03/29 03:31:00;;;;;;;1.4;1.4;;;;;;;7.0;100.0;101260;;;;
2023/03/29 03:32:00;;;;;;;1.4;1.4;;;;;;;6.9;100.0;101260;;;;
2023/03/29 03:33:00;;;;;;;1.4;1.4;;;;;;;6.9;100.0;101260;;;;
2023/03/29 03:34:00;;;;;;;1.4;1.4;;;;;;;6.9;100.0;101250;;;;
2023/03/29 03:35:00;;;;;;;1.4;1.4;;;;;;;6.9;100.0;101250;;;;
2023/03/29 03:36:03;;;;;;;1.4;1.4;;;;;;;6.9;100.0;101250;;;;
2023/03/29 03:37:01;;;;;;;1.4;1.4;;;;;;;6.9;100.0;101250;;;;
2023/03/29 03:38:00;;;;;;;1.4;1.4;;;;;;;6.9;100.0;101250;;;;
2023/03/29 03:39:02;;;;;;;1.4;1.4;;;;;;;6.9;100.0;101250;;;;
2023/03/29 03:40:00;;;;;;;1.4;1.4;;;;;;;6.9;100.0;101240;;;;
2023/03/29 03:41:01;;;;;;;1.4;1.4;;;;;;;6.9;100.0;101240;;;;
2023/03/29 03:42:00;;;;;;;1.4;1.4;;;;;;;6.9;100.0;101240;;;;
2023/03/29 03:43:00;;;;;;;1.4;1.4;;;;;;;6.9;100.0;101240;;;;
2023/03/29 03:44:00;;;;;;;1.4;1.4;;;;;;;7.0;100.0;101240;;;;
2023/03/29 03:45:00;;;;;;;1.4;1.4;;;;;;;7.0;100.0;101240;;;;
2023/03/29 03:46:01;;;;;;;1.4;1.4;;;;;;;7.0;100.0;101240;;;;
2023/03/29 03:47:00;;;;;;;1.4;1.4;;;;;;;7.0;100.0;101240;;;;
2023/03/29 03:48:00;;;;;;;1.4;1.4;;;;;;;7.0;100.0;101250;;;;
2023/03/29 03:49:00;;;;;;;1.5;1.5;;;;;;;7.0;100.0;101250;;;;
2023/03/29 03:50:00;;;;;;;1.5;1.5;;;;;;;7.0;100.0;101240;;;;
2023/03/29 03:51:02;;;;;;;1.5;1.5;;;;;;;7.0;100.0;101240;;;;
2023/03/29 03:52:00;;;;;;;1.5;1.5;;;;;;;7.0;100.0;101250;;;;
2023/03/29 03:53:00;;;;;;;1.5;1.5;;;;;;;7.0;100.0;101250;;;;
2023/03/29 03:54:00;;;;;;;1.5;1.5;;;;;;;7.0;100.0;101250;;;;
2023/03/29 03:55:02;;;;;;;1.5;1.5;;;;;;;7.0;100.0;101250;;;;
2023/03/29 03:56:01;;;;;;;1.5;1.5;;;;;;;7.0;100.0;101240;;;;
2023/03/29 03:57:01;;;;;;;1.5;1.5;;;;;;;7.0;100.0;101240;;;;
2023/03/29 03:58:00;;;;;;;1.5;1.5;;;;;;;7.0;100.0;101250;;;;
2023/03/29 03:59:00;;;;;;;1.5;1.5;;;;;;;7.0;100.0;101250;;;;
2023/03/29 04:00:00;;;;;;;1.5;1.5;;;;;;;7.0;100.0;101250;;;;
2023/03/29 04:01:00;;;;;;;1.5;1.5;;;;;;;7.0;100.0;101250;;;;
2023/03/29 04:02:00;;;;;;;1.5;1.5;;;;;;;6.9;100.0;101250;;;;
2023/03/29 04:03:01;;;;;;;1.5;1.5;;;;;;;6.9;100.0;101250;;;;
2023/03/29 04:04:00;;;;;;;1.5;1.5;;;;;;;7.0;100.0;101240;;;;
2023/03/29 04:05:02;;;;;;;1.5;1.5;;;;;;;7.0;100.0;101240;;;;
2023/03/29 04:06:00;;;;;;;1.5;1.5;;;;;;;7.0;100.0;101240;;;;
2023/03/29 04:07:01;;;;;;;1.5;1.5;;;;;;;7.0;100.0;101240;;;;
2023/03/29 04:08:00;;;;;;;1.5;1.5;;;;;;;6.9;100.0;101240;;;;
2023/03/29 04:09:00;;;;;;;1.5;1.5;;;;;;;6.9;100.0;101240;;;;
2023/03/29 04:10:00;;;;;;;1.5;1.5;;;;;;;7.0;100.0;101240;;;;
2023/03/29 04:11:01;;;;;;;1.5;1.5;;;;;;;7.0;100.0;101240;;;;
2023/03/29 04:12:01;;;;;;;1.5;1.5;;;;;;;7.0;100.0;101250;;;;
2023/03/29 04:13:01;;;;;;;1.5;1.5;;;;;;;7.0;100.0;101250;;;;
2023/03/29 04:14:00;;;;;;;1.5;1.5;;;;;;;7.1;100.0;101240;;;;
2023/03/29 04:15:00;;;;;;;1.5;1.5;;;;;;;7.1;100.0;101240;;;;
2023/03/29 04:16:02;;;;;;;1.5;1.5;;;;;;;7.1;100.0;101240;;;;
2023/03/29 04:17:00;;;;;;;1.5;1.5;;;;;;;7.1;100.0;101240;;;;
2023/03/29 04:18:00;;;;;;;1.5;1.5;;;;;;;7.1;100.0;101240;;;;
2023/03/29 04:19:00;;;;;;;1.5;1.5;;;;;;;7.1;100.0;101240;;;;
2023/03/29 04:20:04;;;;;;;1.5;1.5;;;;;;;7.1;100.0;101240;;;;
2023/03/29 04:21:01;;;;;;;1.5;1.5;;;;;;;7.1;100.0;101240;;;;
2023/03/29 04:22:00;;;;;;;1.5;1.5;;;;;;;7.1;100.0;101240;;;;
2023/03/29 04:23:00;;;;;;;1.5;1.5;;;;;;;7.1;100.0;101240;;;;
2023/03/29 04:24:00;;;;;;;1.5;1.5;;;;;;;7.1;100.0;101230;;;;
2023/03/29 04:25:00;;;;;;;1.5;1.5;;;;;;;7.1;100.0;101230;;;;
2023/03/29 04:26:00;;;;;;;1.5;1.5;;;;;;;7.1;100.0;101230;;;;
2023/03/29 04:27:00;;;;;;;1.5;1.5;;;;;;;7.1;100.0;101230;;;;
2023/03/29 04:28:00;;;;;;;1.5;1.5;;;;;;;7.1;100.0;101230;;;;
2023/03/29 04:29:00;;;;;;;1.3;1.3;;;;;;;7.1;100.0;101230;;;;
2023/03/29 04:30:00;;;;;;;1.3;1.3;;;;;;;7.1;100.0;101230;;;;
2023/03/29 04:31:01;;;;;;;1.3;1.3;;;;;;;7.1;100.0;101230;;;;
2023/03/29 04:32:00;;;;;;;1.3;1.3;;;;;;;7.1;100.0;101220;;;;
2023/03/29 04:33:00;;;;;;;1.3;1.3;;;;;;;7.1;100.0;101220;;;;
2023/03/29 04:34:00;;;;;;;1.3;1.3;;;;;;;7.1;100.0;101220;;;;
2023/03/29 04:35:01;;;;;;;1.3;1.3;;;;;;;7.1;100.0;101220;;;;
2023/03/29 04:36:00;;;;;;;1.3;1.3;;;;;;;7.1;100.0;101220;;;;
2023/03/29 04:37:01;;;;;;;1.3;1.3;;;;;;;7.1;100.0;101220;;;;
2023/03/29 04:38:00;;;;;;;1.3;1.3;;;;;;;7.1;100.0;101220;;;;
2023/03/29 04:39:00;;;;;;;1.3;1.3;;;;;;;7.1;100.0;101220;;;;
2023/03/29 04:40:00;;;;;;;1.3;1.3;;;;;;;7.1;100.0;101220;;;;
2023/03/29 04:41:02;;;;;;;1.3;1.3;;;;;;;7.1;100.0;101220;;;;
2023/03/29 04:42:02;;;;;;;1.3;1.3;;;;;;;7.1;100.0;101220;;;;
2023/03/29 04:43:01;;;;;;;1.3;1.3;;;;;;;7.1;100.0;101220;;;;
2023/03/29 04:44:02;;;;;;;1.3;1.3;;;;;;;7.0;100.0;101220;;;;
2023/03/29 04:45:00;;;;;;;1.3;1.3;;;;;;;7.0;100.0;101220;;;;
2023/03/29 04:46:01;;;;;;;1.3;1.3;;;;;;;7.1;100.0;101220;;;;
2023/03/29 04:47:00;;;;;;;1.3;1.3;;;;;;;7.1;100.0;101220;;;;
2023/03/29 04:48:00;;;;;;;1.5;1.5;;;;;;;7.1;100.0;101220;;;;
2023/03/29 04:49:00;;;;;;;1.5;1.5;;;;;;;7.1;100.0;101220;;;;
2023/03/29 04:50:00;;;;;;;1.5;1.5;;;;;;;7.1;100.0;101220;;;;
2023/03/29 04:51:00;;;;;;;1.5;1.5;;;;;;;7.1;100.0;101220;;;;
2023/03/29 04:52:00;;;;;;;1.5;1.5;;;;;;;7.1;100.0;101210;;;;
2023/03/29 04:53:00;;;;;;;1.5;1.5;;;;;;;7.1;100.0;101210;;;;
2023/03/29 04:54:00;;;;;;;1.5;1.5;;;;;;;7.0;100.0;101210;;;;
2023/03/29 04:55:00;;;;;;;1.5;1.5;;;;;;;7.0;100.0;101210;;;;
2023/03/29 04:56:00;;;;;;;1.5;1.5;;;;;;;7.2;100.0;101210;;;;
2023/03/29 04:57:00;;;;;;;1.5;1.5;;;;;;;7.2;100.0;101210;;;;
2023/03/29 04:58:01;;;;;;;1.5;1.5;;;;;;;7.1;100.0;101210;;;;
2023/03/29 04:59:00;;;;;;;1.5;1.5;;;;;;;7.1;100.0;101210;;;;
2023/03/29 05:00:00;;;;;;;1.5;1.5;;;;;;;7.1;100.0;101210;;;;
2023/03/29 05:01:00;;;;;;;1.5;1.5;;;;;;;7.1;100.0;101210;;;;
2023/03/29 05:02:01;;;;;;;1.5;1.5;;;;;;;7.1;100.0;101200;;;;
2023/03/29 05:03:00;;;;;;;1.5;1.5;;;;;;;7.1;100.0;101200;;;;
2023/03/29 05:04:01;;;;;;;1.5;1.5;;;;;;;7.1;100.0;101210;;;;
2023/03/29 05:05:00;;;;;;;1.5;1.5;;;;;;;7.1;100.0;101210;;;;
2023/03/29 05:06:05;;;;;;;1.5;1.5;;;;;;;7.1;100.0;101210;;;;
2023/03/29 05:07:01;;;;;;;1.5;1.5;;;;;;;7.1;100.0;101210;;;;
2023/03/29 05:08:00;;;;;;;1.5;1.5;;;;;;;7.1;100.0;101210;;;;
2023/03/29 05:09:00;;;;;;;1.5;1.5;;;;;;;7.1;100.0;101210;;;;
2023/03/29 05:10:00;;;;;;;1.5;1.5;;;;;;;7.1;100.0;101210;;;;
2023/03/29 05:11:00;;;;;;;1.5;1.5;;;;;;;7.1;100.0;101210;;;;
2023/03/29 05:12:00;;;;;;;1.5;1.5;;;;;;;7.1;100.0;101210;;;;
2023/03/29 05:13:00;;;;;;;1.5;1.5;;;;;;;7.1;100.0;101210;;;;
2023/03/29 05:14:02;;;;;;;1.5;1.5;;;;;;;7.2;100.0;101210;;;;
2023/03/29 05:15:00;;;;;;;1.5;1.5;;;;;;;7.2;100.0;101210;;;;
2023/03/29 05:16:00;;;;;;;1.5;1.5;;;;;;;7.2;100.0;101200;;;;
2023/03/29 05:17:00;;;;;;;1.5;1.5;;;;;;;7.2;100.0;101200;;;;
2023/03/29 05:18:01;;;;;;;1.5;1.5;;;;;;;7.2;100.0;101210;;;;
2023/03/29 05:19:00;;;;;;;1.5;1.5;;;;;;;7.2;100.0;101210;;;;
2023/03/29 05:20:00;;;;;;;1.5;1.5;;;;;;;7.2;100.0;101210;;;;
2023/03/29 05:21:01;;;;;;;1.5;1.5;;;;;;;7.2;100.0;101210;;;;
2023/03/29 05:22:00;;;;;;;1.5;1.5;;;;;;;7.2;100.0;101210;;;;
2023/03/29 05:23:00;;;;;;;1.5;1.5;;;;;;;7.2;100.0;101210;;;;
2023/03/29 05:24:00;;;;;;;1.5;1.5;;;;;;;7.2;100.0;101210;;;;
2023/03/29 05:25:00;;;;;;;1.5;1.5;;;;;;;7.2;100.0;101210;;;;
2023/03/29 05:26:00;;;;;;;1.5;1.5;;;;;;;7.2;100.0;101210;;;;
2023/03/29 05:27:01;;;;;;;1.5;1.5;;;;;;;7.2;100.0;101210;;;;
2023/03/29 05:28:01;;;;;;;1.4;1.4;;;;;;;7.1;100.0;101210;;;;
2023/03/29 05:29:00;;;;;;;1.4;1.4;;;;;;;7.1;100.0;101210;;;;
2023/03/29 05:30:00;;;;;;;1.4;1.4;;;;;;;7.1;100.0;101210;;;;
2023/03/29 05:31:02;;;;;;;1.4;1.4;;;;;;;7.1;100.0;101210;;;;
2023/03/29 05:32:00;;;;;;;1.4;1.4;;;;;;;7.1;100.0;101210;;;;
2023/03/29 05:33:00;;;;;;;1.4;1.4;;;;;;;7.1;100.0;101210;;;;
2023/03/29 05:34:00;;;;;;;1.4;1.4;;;;;;;7.2;100.0;101210;;;;
2023/03/29 05:35:00;;;;;;;1.4;1.4;;;;;;;7.2;100.0;101210;;;;
2023/03/29 05:36:01;;;;;;;1.4;1.4;;;;;;;7.3;100.0;101210;;;;
2023/03/29 05:37:00;;;;;;;1.4;1.4;;;;;;;7.3;100.0;101210;;;;
2023/03/29 05:38:00;;;;;;;1.4;1.4;;;;;;;7.2;100.0;101210;;;;
2023/03/29 05:39:00;;;;;;;1.4;1.4;;;;;;;7.2;100.0;101210;;;;
2023/03/29 05:40:09;;;;;;;1.4;1.4;;;;;;;7.4;100.0;101210;;;;
2023/03/29 05:41:01;;;;;;;1.4;1.4;;;;;;;7.4;100.0;101210;;;;
2023/03/29 05:42:00;;;;;;;1.4;1.4;;;;;;;7.4;100.0;101210;;;;
2023/03/29 05:43:01;;;;;;;1.4;1.4;;;;;;;7.4;100.0;101210;;;;
2023/03/29 05:44:00;;;;;;;1.4;1.4;;;;;;;7.4;100.0;101210;;;;
2023/03/29 05:45:00;;;;;;;1.4;1.4;;;;;;;7.4;100.0;101210;;;;
2023/03/29 05:46:00;;;;;;;1.4;1.4;;;;;;;7.3;100.0;101210;;;;
2023/03/29 05:47:00;;;;;;;1.4;1.4;;;;;;;7.3;100.0;101210;;;;
2023/03/29 05:48:00;;;;;;;1.4;1.4;;;;;;;7.3;100.0;101210;;;;
2023/03/29 05:49:01;;;;;;;1.4;1.4;;;;;;;7.3;100.0;101210;;;;
2023/03/29 05:50:00;;;;;;;1.4;1.4;;;;;;;7.4;100.0;101210;;;;
2023/03/29 05:51:00;;;;;;;1.4;1.4;;;;;;;7.4;100.0;101210;;;;
2023/03/29 05:52:01;;;;;;;1.4;1.4;;;;;;;7.3;100.0;101220;;;;
2023/03/29 05:53:00;;;;;;;1.4;1.4;;;;;;;7.3;100.0;101220;;;;
2023/03/29 05:54:00;;;;;;;1.4;1.4;;;;;;;7.3;100.0;101220;;;;
2023/03/29 05:55:00;;;;;;;1.4;1.4;;;;;;;7.3;100.0;101220;;;;
2023/03/29 05:56:00;;;;;;;1.4;1.4;;;;;;;7.3;100.0;101220;;;;
2023/03/29 05:57:00;;;;;;;1.4;1.4;;;;;;;7.3;100.0;101220;;;;
2023/03/29 05:58:00;;;;;;;1.4;1.4;;;;;;;7.4;100.0;101220;;;;
2023/03/29 05:59:00;;;;;;;1.4;1.4;;;;;;;7.4;100.0;101220;;;;
2023/03/29 06:00:00;;;;;;;1.4;1.4;;;;;;;7.4;100.0;101220;;;;
2023/03/29 06:01:04;;;;;;;1.4;1.4;;;;;;;7.4;100.0;101220;;;;
2023/03/29 06:02:02;;;;;;;1.4;1.4;;;;;;;7.3;100.0;101230;;;;
2023/03/29 06:03:10;;;;;;;1.4;1.4;;;;;;;7.3;100.0;101230;;;;
2023/03/29 06:04:00;;;;;;;1.4;1.4;;;;;;;7.3;100.0;101230;;;;
2023/03/29 06:05:00;;;;;;;1.4;1.4;;;;;;;7.3;100.0;101230;;;;
2023/03/29 06:06:02;;;;;;;1.4;1.4;;;;;;;7.4;100.0;101230;;;;
2023/03/29 06:07:00;;;;;;;1.4;1.4;;;;;;;7.4;100.0;101230;;;;
2023/03/29 06:08:00;;;;;;;1.6;1.6;;;;;;;7.3;100.0;101230;;;;
2023/03/29 06:09:00;;;;;;;1.6;1.6;;;;;;;7.3;100.0;101230;;;;
2023/03/29 06:10:01;;;;;;;1.6;1.6;;;;;;;7.4;100.0;101230;;;;
2023/03/29 06:11:05;;;;;;;1.6;1.6;;;;;;;7.4;100.0;101230;;;;
2023/03/29 06:12:00;;;;;;;1.6;1.6;;;;;;;7.4;100.0;101230;;;;
2023/03/29 06:13:00;;;;;;;1.6;1.6;;;;;;;7.4;100.0;101230;;;;
2023/03/29 06:14:01;;;;;;;1.6;1.6;;;;;;;7.5;100.0;101220;;;;
2023/03/29 06:15:03;;;;;;;1.6;1.6;;;;;;;7.5;100.0;101220;;;;
2023/03/29 06:16:00;;;;;;;1.6;1.6;;;;;;;7.5;100.0;101230;;;;
2023/03/29 06:17:00;;;;;;;1.6;1.6;;;;;;;7.5;100.0;101230;;;;
2023/03/29 06:18:01;;;;;;;1.6;1.6;;;;;;;7.6;100.0;101220;;;;
2023/03/29 06:19:00;;;;;;;1.6;1.6;;;;;;;7.6;100.0;101220;;;;
2023/03/29 06:20:00;;;;;;;1.6;1.6;;;;;;;7.4;100.0;101220;;;;
2023/03/29 06:21:01;;;;;;;1.6;1.6;;;;;;;7.4;100.0;101220;;;;
2023/03/29 06:22:00;;;;;;;1.6;1.6;;;;;;;7.7;100.0;101220;;;;
2023/03/29 06:23:00;;;;;;;1.6;1.6;;;;;;;7.7;100.0;101220;;;;
2023/03/29 06:24:00;;;;;;;1.6;1.6;;;;;;;7.8;100.0;101220;;;;
2023/03/29 06:25:00;;;;;;;1.6;1.6;;;;;;;7.8;100.0;101220;;;;
2023/03/29 06:26:00;;;;;;;1.6;1.6;;;;;;;7.7;100.0;101220;;;;
2023/03/29 06:27:00;;;;;;;1.6;1.6;;;;;;;7.7;100.0;101220;;;;
2023/03/29 06:28:00;;;;;;;1.2;1.2;;;;;;;7.7;100.0;101220;;;;
2023/03/29 06:29:00;;;;;;;1.2;1.2;;;;;;;7.7;100.0;101220;;;;